Weather reports worldwide

Advertisment
Isola Stromboli, Italy (16416): temperature & dewpoint: 16.01.2020 00:00:00 - 22.01.2020 00:00:00 (CET)Isola Stromboli, Italy (16416): wind speed: 16.01.2020 00:00:00 - 22.01.2020 00:00:00 (CET)Isola Stromboli, Italy (16416): wind direction: 16.01.2020 00:00:00 - 22.01.2020 00:00:00 (CET)Isola Stromboli, Italy (16416): reduced air pressure: 16.01.2020 00:00:00 - 22.01.2020 00:00:00 (CET)
Date & Time tt [°C] td [°C] ff [km/h] ff [kn] dd ppp [hPa]
22.01.2020 00:00:00 12,6 9,2 18 10 S 1035,1
21.01.2020 23:00:00 12,7 9,5 13 7 S 1035,4
21.01.2020 22:00:00 12,6 9,4 11 6 S 1035,2
21.01.2020 21:00:00 12,6 10,3 9 5 S 1035,0
21.01.2020 20:00:00 12,7 10,0 8 4 S 1034,8
21.01.2020 19:00:00 13,3 10,3 15 8 S 1034,9
21.01.2020 18:00:00 13,5 10,1 15 8 S 1034,5
21.01.2020 17:00:00 13,9 10,8 18 10 S 1034,6
21.01.2020 16:00:00 14,3 10,3 18 10 S 1035,0
21.01.2020 15:00:00 14,8 10,2 21 11 S 1035,1
21.01.2020 14:00:00 14,8 9,8 15 8 S 1035,4
21.01.2020 13:00:00 14,8 9,3 13 7 S 1036,0
21.01.2020 12:00:00 14,3 9,5 13 7 S 1036,7
21.01.2020 11:00:00 14,1 9,7 13 7 S 1037,1
21.01.2020 10:00:00 13,4 9,2 11 6 S 1036,7
21.01.2020 09:00:00 12,9 8,5 16 9 S 1036,4
21.01.2020 08:00:00 12,9 8,5 16 9 S 1035,9
21.01.2020 07:00:00 12,9 8,5 18 10 S 1035,4
21.01.2020 06:00:00 12,8 8,4 21 11 S 1035,1
21.01.2020 05:00:00 12,6 8,6 18 10 S 1034,9
21.01.2020 04:00:00 12,4 8,0 22 12 S 1034,6
21.01.2020 03:00:00 12,6 8,2 28 15 S 1034,8
21.01.2020 02:00:00 12,6 8,8 28 15 S 1035,0
21.01.2020 01:00:00 12,7 9,1 26 14 S 1034,8
21.01.2020 00:00:00 12,9 8,7 28 15 S 1034,9
20.01.2020 23:00:00 13,0 8,8 31 17 S 1034,7
20.01.2020 22:00:00 12,9 8,5 28 15 S 1034,7
20.01.2020 21:00:00 13,1 9,1 31 17 S 1034,4
20.01.2020 20:00:00 13,1 8,9 31 17 S 1033,5
20.01.2020 19:00:00 13,4 8,6 29 16 S 1032,6
20.01.2020 18:00:00 13,8 9,0 31 17 S 1032,2
20.01.2020 17:00:00 13,9 8,7 24 13 S 1031,7
20.01.2020 16:00:00 14,2 9,2 26 14 S 1031,5
20.01.2020 15:00:00 14,3 9,9 22 12 S 1031,6
20.01.2020 14:00:00 14,5 9,3 21 11 S 1031,6
20.01.2020 13:00:00 15,1 9,2 22 12 S 1031,4
20.01.2020 12:00:00 14,4 8,3 26 14 S 1031,5
20.01.2020 11:00:00 14,8 9,1 26 14 S 1031,2
20.01.2020 10:00:00 14,4 9,4 22 12 S 1030,7
20.01.2020 09:00:00 14,1 9,3 22 12 S 1030,0
20.01.2020 08:00:00 12,8 8,2 22 12 S 1029,5
20.01.2020 07:00:00 12,7 8,5 22 12 S 1028,7
20.01.2020 06:00:00 12,7 8,3 21 11 S 1028,1
20.01.2020 05:00:00 12,8 8,6 15 8 S 1027,7
20.01.2020 04:00:00 12,6 7,2 11 6 S 1027,5
20.01.2020 03:00:00 12,7 7,3 15 8 S 1027,2
20.01.2020 02:00:00 12,6 7,2 22 12 S 1026,5
20.01.2020 01:00:00 12,5 8,7 24 13 S 1026,3
20.01.2020 00:00:00 12,4 9,0 21 11 S 1026,0
19.01.2020 23:00:00 12,3 9,5 21 11 S 1025,7
19.01.2020 22:00:00 12,3 8,9 13 7 S 1025,4
19.01.2020 21:00:00 11,9 8,1 8 4 S 1025,1
19.01.2020 20:00:00 11,4 7,3 0 0 N 1024,7
19.01.2020 19:00:00 11,5 6,6 0 0 N 1024,3
19.01.2020 18:00:00 11,4 6,9 0 0 N 1023,6
19.01.2020 17:00:00 11,9 7,6 0 0 N 1022,8
19.01.2020 16:00:00 12,2 7,9 0 0 N 1022,3
19.01.2020 15:00:00 12,5 8,3 0 0 N 1022,0
19.01.2020 14:00:00 12,8 8,6 0 0 N 1021,7
19.01.2020 13:00:00 12,8 8,8 5 3 S 1021,9
19.01.2020 12:00:00 13,0 9,0 5 3 S 1022,3
19.01.2020 11:00:00 12,6 8,6 5 3 S 1022,5
19.01.2020 10:00:00 11,8 8,2 13 7 S 1022,0
19.01.2020 09:00:00 12,7 8,3 16 9 S 1021,6
19.01.2020 08:00:00 12,3 6,7 21 11 S 1021,3
19.01.2020 07:00:00 12,3 6,3 29 16 S 1020,9
19.01.2020 06:00:00 12,4 6,2 24 13 S 1021,0
19.01.2020 05:00:00 12,3 5,8 22 12 S 1021,0
19.01.2020 04:00:00 12,5 6,5 26 14 S 1021,3
19.01.2020 03:00:00 12,7 5,8 24 13 S 1021,5
19.01.2020 02:00:00 12,8 5,6 26 14 S 1021,6
19.01.2020 01:00:00 12,8 6,5 26 14 S 1021,4
19.01.2020 00:00:00 13,0 6,1 28 15 S 1021,6
18.01.2020 23:00:00 12,7 6,4 21 11 S 1021,8
18.01.2020 22:00:00 12,8 7,8 21 11 S 1022,1
18.01.2020 21:00:00 12,7 7,7 18 10 S 1022,3
18.01.2020 20:00:00 12,7 7,3 15 8 S 1022,7
18.01.2020 19:00:00 12,5 7,7 16 9 S 1022,7
18.01.2020 18:00:00 12,6 7,4 24 13 S 1022,4
18.01.2020 17:00:00 12,4 10,1 16 9 S 1022,4
18.01.2020 16:00:00 12,4 8,6 22 12 S 1022,2
18.01.2020 15:00:00 11,5 10,2 8 4 S 1022,3
18.01.2020 14:00:00 11,0 7,8 13 7 S 1022,8
18.01.2020 13:00:00 13,7 8,7 13 7 S 1023,2
18.01.2020 12:00:00 14,2 7,7 13 7 S 1024,0
18.01.2020 11:00:00 13,7 7,8 15 8 S 1024,9
18.01.2020 10:00:00 13,2 9,0 16 9 S 1024,8
18.01.2020 09:00:00 13,0 9,2 9 5 S 1024,8
18.01.2020 08:00:00 12,7 8,3 2 1 S 1024,6
18.01.2020 07:00:00 12,3 7,5 0 0 N 1024,9
18.01.2020 06:00:00 12,4 7,2 0 0 N 1025,1
18.01.2020 05:00:00 12,4 7,0 4 2 S 1025,0
18.01.2020 04:00:00 11,4 5,2 8 4 S 1025,6
18.01.2020 03:00:00 12,2 6,6 8 4 S 1025,8
18.01.2020 02:00:00 12,5 7,1 8 4 S 1025,9
18.01.2020 01:00:00 12,4 7,4 11 6 S 1026,1
18.01.2020 00:00:00 12,4 7,8 11 6 S 1026,4
17.01.2020 23:00:00 13,0 8,4 15 8 S 1026,6
17.01.2020 22:00:00 13,0 7,2 13 7 S 1026,7
17.01.2020 21:00:00 13,1 7,3 11 6 S 1026,7
17.01.2020 20:00:00 13,0 7,0 9 5 S 1026,6
17.01.2020 19:00:00 12,9 7,3 11 6 S 1026,6
17.01.2020 18:00:00 12,8 7,8 13 7 S 1026,3
17.01.2020 17:00:00 12,9 7,9 9 5 S 1025,9
17.01.2020 16:00:00 13,0 7,4 13 7 S 1025,9
17.01.2020 15:00:00 13,1 7,5 18 10 S 1025,9
17.01.2020 14:00:00 13,3 6,6 16 9 S 1025,9
17.01.2020 13:00:00 13,4 6,7 15 8 S 1026,4
17.01.2020 12:00:00 13,5 6,1 9 5 S 1026,8
17.01.2020 11:00:00 13,2 6,7 9 5 S 1027,3
17.01.2020 10:00:00 13,1 7,3 9 5 S 1027,2
17.01.2020 09:00:00 12,8 6,5 9 5 S 1026,9
17.01.2020 08:00:00 12,6 6,4 13 7 S 1026,8
17.01.2020 07:00:00 12,4 5,5 11 6 S 1026,9
17.01.2020 06:00:00 12,5 6,0 11 6 S 1026,7
17.01.2020 05:00:00 12,4 5,5 9 5 S 1026,7
17.01.2020 04:00:00 12,5 5,8 16 9 S 1027,1
17.01.2020 03:00:00 12,5 6,0 15 8 S 1027,4
17.01.2020 02:00:00 12,4 5,7 15 8 S 1027,4
17.01.2020 01:00:00 12,5 6,0 16 9 S 1027,3
17.01.2020 00:00:00 12,5 5,8 15 8 S 1027,6
16.01.2020 23:00:00 12,5 6,3 11 6 S 1027,9
16.01.2020 22:00:00 12,3 5,6 9 5 S 1028,1
16.01.2020 21:00:00 12,3 5,8 9 5 S 1028,1
16.01.2020 20:00:00 12,5 6,3 11 6 S 1028,3
16.01.2020 19:00:00 12,4 6,2 8 4 S 1028,2
16.01.2020 18:00:00 12,5 6,5 13 7 S 1027,9
16.01.2020 17:00:00 12,8 6,3 16 9 S 1027,7
16.01.2020 16:00:00 13,0 7,0 15 8 S 1027,7
16.01.2020 15:00:00 12,8 7,2 13 7 S 1028,1
16.01.2020 14:00:00 12,6 7,2 15 8 S 1028,2
16.01.2020 13:00:00 12,9 7,3 15 8 S 1028,6
16.01.2020 12:00:00 13,9 7,6 16 9 S 1029,1
16.01.2020 11:00:00 13,5 7,0 13 7 S 1029,6
16.01.2020 10:00:00 13,5 7,9 13 7 S 1029,7
16.01.2020 09:00:00 12,5 7,1 11 6 S 1029,3
16.01.2020 08:00:00 11,9 8,1 9 5 S 1028,9
16.01.2020 07:00:00 11,9 8,0 8 4 S 1028,8
16.01.2020 06:00:00 11,7 7,9 9 5 S 1028,6
16.01.2020 05:00:00 11,6 7,9 8 4 S 1028,5
16.01.2020 04:00:00 12,0 8,4 11 6 S 1028,8
16.01.2020 03:00:00 11,5 7,8 11 6 S 1028,9
16.01.2020 02:00:00 11,6 8,2 11 6 S 1029,0
16.01.2020 01:00:00 11,8 9,0 9 5 S 1028,9
16.01.2020 00:00:00 11,7 9,1 9 5 S 1029,2

tt = temperature
td = dewpoint
ff = wind speed
dd = wind direction
ppp = reduced air pressure

Next stations